Time;durP1;ratioP1;P1;durP2;ratioP2;P2;SDS_P1;SDS_P2;PMS_P1;PMS_P2;Temp;Humidity;BMP_temperature;BMP_pressure;BME280_temperature;BME280_humidity;BME280_pressure;Samples;Min_cycle;Max_cycle;Signal;HPM_P1;HPM_P2
2022/11/21 00:02:05;;;;;;;0.60;0.60;;;6.60;99.90;;;;;;5033822;28;20567;-79
2022/11/21 00:04:32;;;;;;;1.77;0.70;;;6.60;99.90;;;;;;5039731;28;20048;-79
2022/11/21 00:06:59;;;;;;;2.40;0.80;;;6.70;99.90;;;;;;5042349;28;20127;-78
2022/11/21 00:09:26;;;;;;;1.13;0.55;;;6.70;99.90;;;;;;5059896;28;20080;-78
2022/11/21 00:11:53;;;;;;;0.93;0.73;;;6.70;99.90;;;;;;5043104;28;20076;-78
2022/11/21 00:14:20;;;;;;;0.63;0.50;;;6.70;99.90;;;;;;5046292;28;20132;-78
2022/11/21 00:16:47;;;;;;;0.65;0.45;;;6.70;99.90;;;;;;5037587;28;20050;-78
2022/11/21 00:19:18;;;;;;;0.82;0.80;;;6.70;99.90;;;;;;5061214;28;20057;-78
2022/11/21 00:21:45;;;;;;;0.90;0.60;;;6.70;99.90;;;;;;5034154;28;20400;-79
2022/11/21 00:24:12;;;;;;;0.40;0.40;;;6.70;99.90;;;;;;5037692;28;20140;-79
2022/11/21 00:26:39;;;;;;;0.55;0.50;;;6.70;99.90;;;;;;5041601;28;20040;-78
2022/11/21 00:29:06;;;;;;;0.40;0.40;;;6.60;99.90;;;;;;5043683;28;20052;-78
2022/11/21 00:31:33;;;;;;;0.57;0.50;;;6.50;99.90;;;;;;5061041;28;20055;-77
2022/11/21 00:34:00;;;;;;;0.40;0.40;;;6.50;99.90;;;;;;5042378;28;20067;-78
2022/11/21 00:36:27;;;;;;;0.50;0.40;;;6.50;99.90;;;;;;5026432;28;20087;-78
2022/11/21 00:38:54;;;;;;;0.50;0.50;;;6.40;99.90;;;;;;5026357;28;20040;-78
2022/11/21 00:41:21;;;;;;;0.63;0.50;;;6.40;99.90;;;;;;5041804;28;20487;-78
2022/11/21 00:43:47;;;;;;;0.75;0.40;;;6.40;99.90;;;;;;5041885;28;20059;-78
2022/11/21 00:46:14;;;;;;;0.80;0.60;;;6.30;99.90;;;;;;5042953;28;20171;-78
2022/11/21 00:48:41;;;;;;;0.68;0.60;;;6.30;99.90;;;;;;5058721;28;20076;-77
2022/11/21 00:51:08;;;;;;;0.98;0.60;;;6.30;99.90;;;;;;5042303;28;20064;-78
2022/11/21 00:53:35;;;;;;;0.90;0.60;;;6.30;99.90;;;;;;5042137;28;20127;-78
2022/11/21 00:56:02;;;;;;;1.23;0.50;;;6.30;99.90;;;;;;5059293;28;20740;-78
2022/11/21 00:58:28;;;;;;;0.50;0.40;;;6.30;99.90;;;;;;5061269;28;20207;-78
2022/11/21 01:01:06;;;;;;;0.63;0.40;;;6.30;99.90;;;;;;5042348;28;20131;-78
2022/11/21 01:03:33;;;;;;;0.57;0.45;;;6.30;99.90;;;;;;5060646;28;20119;-78
2022/11/21 01:06:07;;;;;;;1.30;0.50;;;6.30;99.90;;;;;;5042879;28;20052;-78
2022/11/21 01:08:35;;;;;;;1.13;0.60;;;6.20;99.90;;;;;;5028620;28;20132;-79
2022/11/21 01:11:09;;;;;;;0.75;0.50;;;6.30;99.90;;;;;;5045569;28;20083;-78
2022/11/21 01:13:36;;;;;;;0.90;0.70;;;6.30;99.90;;;;;;5064429;28;20050;-78
2022/11/21 01:16:10;;;;;;;0.73;0.52;;;6.30;99.90;;;;;;5043984;28;20201;-79
2022/11/21 01:18:37;;;;;;;1.00;0.63;;;6.30;99.90;;;;;;5046123;28;20471;-80
2022/11/21 01:21:06;;;;;;;0.98;0.70;;;6.30;99.90;;;;;;5060413;28;20086;-80
2022/11/21 01:23:33;;;;;;;0.70;0.47;;;6.30;99.90;;;;;;5046254;28;20086;-80
2022/11/21 01:26:03;;;;;;;0.55;0.55;;;6.40;99.90;;;;;;5064427;28;20508;-80
2022/11/21 01:28:30;;;;;;;0.93;0.45;;;6.40;99.90;;;;;;5045627;28;20049;-80
2022/11/21 01:31:16;;;;;;;0.95;0.60;;;6.40;99.90;;;;;;5064141;28;20083;-80
2022/11/21 01:33:43;;;;;;;0.60;0.50;;;6.40;99.90;;;;;;5037928;28;20052;-79
2022/11/21 01:36:16;;;;;;;0.75;0.68;;;6.40;99.90;;;;;;5043254;28;20045;-80
2022/11/21 01:38:45;;;;;;;0.43;0.43;;;6.40;99.90;;;;;;5044890;28;20052;-80
2022/11/21 01:41:13;;;;;;;0.68;0.47;;;6.40;99.90;;;;;;5028160;28;20075;-80
2022/11/21 01:43:39;;;;;;;0.55;0.50;;;6.40;99.90;;;;;;5033973;28;20122;-79
2022/11/21 01:46:06;;;;;;;0.40;0.40;;;6.30;99.90;;;;;;5063144;28;20058;-78
2022/11/21 01:48:45;;;;;;;0.65;0.57;;;6.40;99.90;;;;;;5063802;28;20040;-78
2022/11/21 01:51:30;;;;;;;1.48;0.50;;;6.40;99.90;;;;;;5062277;28;20080;-78
2022/11/21 01:54:17;;;;;;;0.50;0.40;;;6.30;99.90;;;;;;5031206;28;20048;-78
2022/11/21 01:56:43;;;;;;;0.57;0.45;;;6.30;99.90;;;;;;5047283;28;20143;-78
2022/11/21 01:59:11;;;;;;;1.15;0.60;;;6.20;99.90;;;;;;5062348;28;20051;-78
2022/11/21 02:01:38;;;;;;;0.70;0.50;;;6.20;99.90;;;;;;5029249;28;20048;-78
2022/11/21 02:04:04;;;;;;;0.35;0.35;;;6.20;99.90;;;;;;5063107;28;21629;-78
2022/11/21 02:06:32;;;;;;;0.47;0.40;;;6.20;99.90;;;;;;5061575;28;20045;-78
2022/11/21 02:08:59;;;;;;;0.68;0.60;;;6.20;99.90;;;;;;5061379;28;20084;-78
2022/11/21 02:11:49;;;;;;;1.45;0.70;;;6.10;99.90;;;;;;5041562;28;20081;-78
2022/11/21 02:14:15;;;;;;;1.00;0.68;;;6.10;99.90;;;;;;5043581;28;20356;-79
2022/11/21 02:16:42;;;;;;;0.45;0.40;;;6.00;99.90;;;;;;5045779;28;20135;-78
2022/11/21 02:19:11;;;;;;;0.45;0.40;;;6.00;99.90;;;;;;5052995;28;20049;-79
2022/11/21 02:21:54;;;;;;;1.30;0.60;;;5.90;99.90;;;;;;5018838;28;20063;-78
2022/11/21 02:24:24;;;;;;;0.40;0.40;;;5.90;99.90;;;;;;5023802;28;20045;-78
2022/11/21 02:26:51;;;;;;;0.50;0.50;;;5.90;99.90;;;;;;5043823;28;20064;-79
2022/11/21 02:29:18;;;;;;;1.15;0.60;;;5.90;99.90;;;;;;5033254;28;20052;-78
2022/11/21 02:31:44;;;;;;;0.40;0.40;;;5.90;99.90;;;;;;5008257;28;20491;-77
2022/11/21 02:34:11;;;;;;;0.75;0.52;;;5.90;99.90;;;;;;5042809;28;20041;-78
2022/11/21 02:36:45;;;;;;;2.03;0.47;;;5.90;99.90;;;;;;5026769;28;20123;-78
2022/11/21 02:39:17;;;;;;;0.32;0.32;;;5.80;99.90;;;;;;5011427;28;20060;-78
2022/11/21 02:42:01;;;;;;;0.63;0.50;;;5.80;99.90;;;;;;5011630;28;20041;-78
2022/11/21 02:44:42;;;;;;;0.40;0.40;;;5.80;99.90;;;;;;5016822;28;20040;-79
2022/11/21 02:47:09;;;;;;;0.98;0.50;;;5.80;99.90;;;;;;5019113;28;20092;-78
2022/11/21 02:49:48;;;;;;;0.63;0.50;;;5.80;99.90;;;;;;5034927;28;20101;-78
2022/11/21 02:52:14;;;;;;;0.88;0.50;;;5.70;99.90;;;;;;5038395;28;20629;-78
2022/11/21 02:54:41;;;;;;;0.77;0.43;;;5.70;99.90;;;;;;5026184;28;20055;-77
2022/11/21 02:57:08;;;;;;;0.77;0.50;;;5.70;99.90;;;;;;5025244;28;20068;-78
2022/11/21 02:59:35;;;;;;;0.57;0.45;;;5.70;99.90;;;;;;5020516;28;20045;-79
2022/11/21 03:02:01;;;;;;;0.50;0.50;;;5.70;99.90;;;;;;5010253;28;20064;-77
2022/11/21 03:04:29;;;;;;;0.57;0.40;;;5.80;99.90;;;;;;5027494;28;20128;-77
2022/11/21 03:06:56;;;;;;;0.90;0.52;;;5.70;99.90;;;;;;5027011;28;20253;-77
2022/11/21 03:09:22;;;;;;;0.30;0.30;;;5.80;99.90;;;;;;5040794;28;20057;-78
2022/11/21 03:11:49;;;;;;;0.68;0.57;;;5.70;99.90;;;;;;5009720;28;20522;-77
2022/11/21 03:14:16;;;;;;;0.60;0.40;;;5.70;99.90;;;;;;5021072;28;20045;-77
2022/11/21 03:16:43;;;;;;;1.20;0.50;;;5.70;99.90;;;;;;5026453;28;20114;-77
2022/11/21 03:19:10;;;;;;;0.98;0.40;;;5.70;99.90;;;;;;5038005;28;20049;-77
2022/11/21 03:21:37;;;;;;;0.60;0.50;;;5.60;99.90;;;;;;5021166;28;20556;-79
2022/11/21 03:24:04;;;;;;;0.60;0.60;;;5.60;99.90;;;;;;5041312;28;20087;-78
2022/11/21 03:26:30;;;;;;;1.00;0.50;;;5.60;99.90;;;;;;5042925;28;20487;-78
2022/11/21 03:28:57;;;;;;;0.50;0.45;;;5.60;99.90;;;;;;5010595;28;20047;-78
2022/11/21 03:31:24;;;;;;;0.68;0.40;;;5.50;99.90;;;;;;5026276;28;20468;-79
2022/11/21 03:33:51;;;;;;;0.38;0.38;;;5.50;99.90;;;;;;5025028;28;20079;-78
2022/11/21 03:36:18;;;;;;;0.93;0.57;;;5.50;99.90;;;;;;5025891;28;20076;-78
2022/11/21 03:38:44;;;;;;;0.50;0.50;;;5.50;99.90;;;;;;5022518;28;20048;-78
2022/11/21 03:41:29;;;;;;;0.65;0.60;;;5.40;99.90;;;;;;5027874;28;20041;-78
2022/11/21 03:44:04;;;;;;;0.40;0.40;;;5.40;99.90;;;;;;5028953;28;20045;-78
2022/11/21 03:46:34;;;;;;;0.70;0.47;;;5.40;99.90;;;;;;5027915;28;20049;-78
2022/11/21 03:49:01;;;;;;;1.05;0.40;;;5.30;99.90;;;;;;5027720;28;20050;-78
2022/11/21 03:51:28;;;;;;;0.50;0.50;;;5.20;99.90;;;;;;5045586;28;20132;-78
2022/11/21 03:53:55;;;;;;;0.80;0.40;;;5.20;99.90;;;;;;5033961;28;20077;-78
2022/11/21 03:56:22;;;;;;;0.55;0.50;;;5.20;99.90;;;;;;5029996;28;20053;-78
2022/11/21 03:58:48;;;;;;;0.70;0.40;;;5.10;99.90;;;;;;5029567;28;20080;-78
2022/11/21 04:01:16;;;;;;;1.02;0.40;;;5.10;99.90;;;;;;5046655;28;20491;-78
2022/11/21 04:03:43;;;;;;;0.50;0.50;;;5.00;99.90;;;;;;5047446;28;20404;-78
2022/11/21 04:06:11;;;;;;;0.40;0.40;;;4.90;99.90;;;;;;5026333;28;20111;-78
2022/11/21 04:08:38;;;;;;;0.47;0.40;;;4.90;99.90;;;;;;5027842;28;20059;-78
2022/11/21 04:11:05;;;;;;;0.55;0.40;;;4.90;99.90;;;;;;5009788;28;20144;-78
2022/11/21 04:13:31;;;;;;;0.30;0.30;;;4.90;99.90;;;;;;5032772;28;20448;-78
2022/11/21 04:15:58;;;;;;;0.30;0.30;;;4.80;99.90;;;;;;5007849;28;20132;-78
2022/11/21 04:18:25;;;;;;;0.47;0.40;;;4.80;99.90;;;;;;5029287;28;20050;-78
2022/11/21 04:21:02;;;;;;;0.75;0.60;;;4.80;99.90;;;;;;5063348;28;20181;-78
2022/11/21 04:23:29;;;;;;;0.98;0.60;;;4.80;99.90;;;;;;5029876;28;20036;-78
2022/11/21 04:25:56;;;;;;;0.60;0.57;;;4.80;99.90;;;;;;5047020;28;20567;-78
2022/11/21 04:28:23;;;;;;;0.70;0.47;;;4.80;99.90;;;;;;5045590;28;20907;-78
2022/11/21 04:30:50;;;;;;;0.32;0.30;;;4.70;99.90;;;;;;5029552;28;20048;-78
2022/11/21 04:33:20;;;;;;;0.25;0.25;;;4.70;99.90;;;;;;5023429;28;20496;-78
2022/11/21 04:35:47;;;;;;;0.93;0.55;;;4.70;99.90;;;;;;5044731;28;20155;-78
2022/11/21 04:38:14;;;;;;;0.40;0.40;;;4.70;99.90;;;;;;5047721;28;20059;-78
2022/11/21 04:40:42;;;;;;;0.30;0.30;;;4.80;99.90;;;;;;5050224;28;20048;-78
2022/11/21 04:43:09;;;;;;;0.50;0.50;;;4.70;99.90;;;;;;5050462;28;20083;-77
2022/11/21 04:45:36;;;;;;;0.43;0.40;;;4.70;99.90;;;;;;5068559;28;20503;-77
2022/11/21 04:48:03;;;;;;;0.40;0.40;;;4.70;99.90;;;;;;5051242;28;20076;-78
2022/11/21 04:50:30;;;;;;;0.73;0.45;;;4.70;99.90;;;;;;5068466;28;20616;-78
2022/11/21 04:52:57;;;;;;;0.40;0.40;;;4.70;99.90;;;;;;5029311;28;20205;-78
2022/11/21 04:55:27;;;;;;;0.50;0.50;;;4.60;99.90;;;;;;5049716;28;20048;-78
2022/11/21 04:57:54;;;;;;;1.52;0.60;;;4.60;99.90;;;;;;5050886;28;20098;-78
2022/11/21 05:00:21;;;;;;;0.85;0.60;;;4.60;99.90;;;;;;5050718;28;20444;-78
2022/11/21 05:02:50;;;;;;;0.63;0.52;;;4.50;99.90;;;;;;5050293;28;20080;-78
2022/11/21 05:05:17;;;;;;;1.02;0.52;;;4.50;99.90;;;;;;5067358;28;20126;-78
2022/11/21 05:07:43;;;;;;;0.80;0.50;;;4.50;99.90;;;;;;5050221;28;20499;-78
2022/11/21 05:10:10;;;;;;;0.43;0.43;;;4.50;99.90;;;;;;5067918;28;20044;-78
2022/11/21 05:15:22;;;;;;;0.47;0.47;;;4.40;99.90;;;;;;5033472;28;20644;-78
2022/11/21 05:17:51;;;;;;;0.50;0.50;;;4.40;99.90;;;;;;5030924;28;20049;-78
2022/11/21 05:20:17;;;;;;;0.40;0.40;;;4.50;99.90;;;;;;5029408;28;20053;-78
2022/11/21 05:22:48;;;;;;;0.80;0.35;;;4.50;99.90;;;;;;5033668;28;20138;-77
2022/11/21 05:25:15;;;;;;;0.73;0.40;;;4.50;99.90;;;;;;5048116;28;20097;-77
2022/11/21 05:27:42;;;;;;;0.57;0.32;;;4.50;99.90;;;;;;5066960;28;20150;-77
2022/11/21 05:30:10;;;;;;;0.30;0.30;;;4.50;99.90;;;;;;5067196;28;20076;-77
2022/11/21 05:32:37;;;;;;;1.73;0.80;;;4.50;99.90;;;;;;5064454;28;20415;-77
2022/11/21 05:35:04;;;;;;;0.93;0.40;;;4.50;99.90;;;;;;5015422;28;20055;-78
2022/11/21 05:37:30;;;;;;;0.55;0.43;;;4.50;99.90;;;;;;5033563;28;20456;-80
2022/11/21 05:39:57;;;;;;;1.55;0.50;;;4.50;99.90;;;;;;5049075;28;20059;-78
2022/11/21 05:43:44;;;;;;;0.60;0.40;;;4.50;99.90;;;;;;5066710;28;20148;-77
2022/11/21 05:45:11;;;;;;;0.45;0.40;;;4.60;99.90;;;;;;5067910;28;20045;-78
2022/11/21 05:47:40;;;;;;;0.93;0.50;;;4.60;99.90;;;;;;5031341;28;20131;-78
2022/11/21 05:50:07;;;;;;;1.30;0.50;;;4.60;99.90;;;;;;5026343;28;20049;-78
2022/11/21 05:52:34;;;;;;;0.30;0.30;;;4.60;99.90;;;;;;5037282;28;20060;-78
2022/11/21 05:55:01;;;;;;;1.08;0.50;;;4.60;99.90;;;;;;5044741;28;20140;-78
2022/11/21 05:57:28;;;;;;;1.13;0.60;;;4.60;99.90;;;;;;5029473;28;20124;-79
2022/11/21 05:59:54;;;;;;;0.50;0.43;;;4.70;99.90;;;;;;5044883;28;20049;-77
2022/11/21 06:05:07;;;;;;;0.50;0.30;;;4.70;99.90;;;;;;5056098;28;20053;-77
2022/11/21 06:07:34;;;;;;;0.63;0.50;;;4.70;99.90;;;;;;5052214;28;20051;-78
2022/11/21 06:10:01;;;;;;;0.57;0.50;;;4.70;99.90;;;;;;5053548;28;20613;-78
2022/11/21 06:12:28;;;;;;;0.65;0.55;;;4.70;99.90;;;;;;5056583;28;20059;-78
2022/11/21 06:14:55;;;;;;;0.73;0.50;;;4.80;99.90;;;;;;5048745;28;20114;-78
2022/11/21 06:17:21;;;;;;;1.15;0.73;;;4.80;99.90;;;;;;5053028;28;20050;-78
2022/11/21 06:19:48;;;;;;;0.70;0.52;;;4.80;99.90;;;;;;5040033;28;20068;-78
2022/11/21 06:22:15;;;;;;;1.27;0.80;;;4.80;99.90;;;;;;5042303;28;20501;-78
2022/11/21 06:24:42;;;;;;;0.60;0.45;;;4.90;99.90;;;;;;5043907;28;20044;-77
2022/11/21 06:27:09;;;;;;;1.00;0.55;;;4.90;99.90;;;;;;5048289;28;20698;-78
2022/11/21 06:29:36;;;;;;;0.82;0.40;;;4.90;99.90;;;;;;5053533;28;20048;-77
2022/11/21 06:32:02;;;;;;;0.40;0.40;;;4.90;99.90;;;;;;5058802;28;20521;-78
2022/11/21 06:34:29;;;;;;;0.75;0.50;;;5.00;99.90;;;;;;5042168;28;20091;-77
2022/11/21 06:36:56;;;;;;;0.68;0.68;;;5.00;99.90;;;;;;5027178;28;20056;-81
2022/11/21 06:39:23;;;;;;;0.68;0.43;;;5.00;99.90;;;;;;5023263;28;20539;-80
2022/11/21 06:41:50;;;;;;;0.63;0.55;;;5.10;99.90;;;;;;5025055;28;20045;-80
2022/11/21 06:44:17;;;;;;;0.75;0.52;;;5.10;99.90;;;;;;5061727;28;20080;-81
2022/11/21 06:46:44;;;;;;;1.55;0.60;;;5.20;99.90;;;;;;5008910;28;20075;-80
2022/11/21 06:49:17;;;;;;;1.30;0.70;;;5.20;99.90;;;;;;5043983;28;20279;-81
2022/11/21 06:51:43;;;;;;;1.27;0.75;;;5.30;99.90;;;;;;5029053;28;20144;-80
2022/11/21 06:54:10;;;;;;;0.85;0.65;;;5.30;99.90;;;;;;5028698;28;20045;-79
2022/11/21 06:56:42;;;;;;;1.30;0.77;;;5.40;99.90;;;;;;5039299;28;20396;-81
2022/11/21 06:59:09;;;;;;;1.42;0.82;;;5.50;99.90;;;;;;5042566;28;20051;-82
2022/11/21 07:01:36;;;;;;;1.52;0.60;;;5.50;99.90;;;;;;5009679;28;20144;-83
2022/11/21 07:04:03;;;;;;;0.95;0.60;;;5.60;99.90;;;;;;5008557;28;20048;-83
2022/11/21 07:06:30;;;;;;;1.08;0.70;;;5.70;99.90;;;;;;5004507;28;20047;-83
2022/11/21 07:08:57;;;;;;;0.77;0.55;;;5.80;99.90;;;;;;5012892;28;20587;-84
2022/11/21 07:11:44;;;;;;;1.55;0.50;;;5.90;99.90;;;;;;5036176;28;20044;-83
2022/11/21 07:14:10;;;;;;;0.70;0.52;;;6.00;99.90;;;;;;5026984;28;20068;-84
2022/11/21 07:16:37;;;;;;;1.52;0.70;;;6.10;99.90;;;;;;5011041;28;20078;-86
2022/11/21 07:19:04;;;;;;;1.02;0.60;;;6.20;99.90;;;;;;5012157;28;20064;-84
2022/11/21 07:21:31;;;;;;;1.23;0.57;;;6.20;99.90;;;;;;5029849;28;20059;-84
2022/11/21 07:23:58;;;;;;;2.05;0.70;;;6.30;99.90;;;;;;5031730;28;20129;-85
2022/11/21 07:26:25;;;;;;;0.93;0.70;;;6.40;99.90;;;;;;5015931;28;20125;-84
2022/11/21 07:28:52;;;;;;;1.13;0.60;;;6.50;99.90;;;;;;5012453;28;20111;-84
2022/11/21 07:31:19;;;;;;;2.85;1.02;;;6.50;99.90;;;;;;4995501;28;20057;-85
2022/11/21 07:33:46;;;;;;;2.15;0.70;;;6.60;99.90;;;;;;5004693;28;20045;-84
2022/11/21 07:36:13;;;;;;;2.08;0.82;;;6.60;99.90;;;;;;5010687;28;20141;-85
2022/11/21 07:38:40;;;;;;;1.15;0.70;;;6.60;99.90;;;;;;5012290;28;20143;-83
2022/11/21 07:41:08;;;;;;;1.70;0.70;;;6.70;99.90;;;;;;5012270;28;20426;-85
2022/11/21 07:43:35;;;;;;;2.00;0.65;;;6.60;99.90;;;;;;5016274;28;20044;-85
2022/11/21 07:46:02;;;;;;;1.98;0.70;;;6.70;99.90;;;;;;5032966;28;20052;-86
2022/11/21 07:48:29;;;;;;;3.60;0.77;;;6.70;99.90;;;;;;5029249;28;20053;-86
2022/11/21 07:50:56;;;;;;;1.63;0.75;;;6.60;99.90;;;;;;4995935;28;20484;-86
2022/11/21 07:53:23;;;;;;;0.75;0.60;;;6.60;99.90;;;;;;5004267;28;20480;-86
2022/11/21 07:55:50;;;;;;;1.85;0.70;;;6.70;99.90;;;;;;5031677;28;20059;-86
2022/11/21 07:58:16;;;;;;;1.17;0.82;;;6.60;99.90;;;;;;5032031;28;20063;-86
2022/11/21 08:00:44;;;;;;;2.67;0.80;;;6.60;99.90;;;;;;5032218;28;20048;-85
2022/11/21 08:03:11;;;;;;;1.00;0.70;;;6.60;99.90;;;;;;5029442;28;20052;-84
2022/11/21 08:05:42;;;;;;;1.05;0.77;;;6.60;99.90;;;;;;5029288;28;20257;-86
2022/11/21 08:08:10;;;;;;;1.75;0.80;;;6.60;99.90;;;;;;5030923;28;20143;-85
2022/11/21 08:10:41;;;;;;;2.55;1.10;;;6.60;99.90;;;;;;5030809;28;20391;-85
2022/11/21 08:13:08;;;;;;;1.92;0.75;;;6.60;99.90;;;;;;5030339;28;20477;-84
2022/11/21 08:15:35;;;;;;;1.08;0.80;;;6.70;99.90;;;;;;5031610;28;20044;-86
2022/11/21 08:18:16;;;;;;;1.33;0.60;;;6.80;99.90;;;;;;5028182;28;20188;-86
2022/11/21 08:20:43;;;;;;;1.55;0.60;;;6.80;99.90;;;;;;5028773;28;20459;-86
2022/11/21 08:23:10;;;;;;;0.63;0.55;;;6.90;99.90;;;;;;5031635;28;20052;-85
2022/11/21 08:25:37;;;;;;;0.85;0.60;;;6.90;99.90;;;;;;5031714;28;20140;-86
2022/11/21 08:28:05;;;;;;;1.33;0.80;;;7.00;99.90;;;;;;5032076;28;20060;-85
2022/11/21 08:30:32;;;;;;;2.63;0.90;;;7.00;99.90;;;;;;5048602;28;20044;-86
2022/11/21 08:32:59;;;;;;;1.52;0.80;;;7.10;99.90;;;;;;5010185;28;20140;-85
2022/11/21 08:35:27;;;;;;;1.42;0.70;;;7.10;99.90;;;;;;5012042;28;20049;-85
2022/11/21 08:38:00;;;;;;;1.88;0.80;;;7.10;99.90;;;;;;5011783;28;20049;-85
2022/11/21 08:40:28;;;;;;;;;;;7.20;99.90;;;;;;5012322;28;20059;-86
2022/11/21 08:42:58;;;;;;;1.65;0.60;;;7.20;99.90;;;;;;5018836;28;19924;-85
2022/11/21 08:45:25;;;;;;;2.75;1.77;;;7.30;99.90;;;;;;5031596;28;20067;-85
2022/11/21 08:47:53;;;;;;;1.88;0.73;;;7.30;99.90;;;;;;5031346;28;20048;-86
2022/11/21 08:50:20;;;;;;;1.85;1.05;;;7.40;99.90;;;;;;5030932;28;20230;-86
2022/11/21 08:52:47;;;;;;;1.00;0.88;;;7.40;99.90;;;;;;5012649;28;20132;-85
2022/11/21 08:55:14;;;;;;;1.73;0.90;;;7.40;99.90;;;;;;4995394;28;20589;-86
2022/11/21 08:57:41;;;;;;;2.28;0.95;;;7.50;99.90;;;;;;4996071;28;20061;-85
2022/11/21 09:00:11;;;;;;;2.85;1.00;;;7.50;99.90;;;;;;4995295;28;20091;-86
2022/11/21 09:02:38;;;;;;;2.33;0.95;;;7.50;99.90;;;;;;5008232;28;20559;-85
2022/11/21 09:05:05;;;;;;;1.20;0.75;;;7.60;99.90;;;;;;5001860;28;20080;-82
2022/11/21 09:07:32;;;;;;;1.67;1.00;;;7.60;99.90;;;;;;5020713;28;20148;-84
2022/11/21 09:09:59;;;;;;;1.58;0.90;;;7.60;99.90;;;;;;5004757;28;20136;-84
2022/11/21 09:12:26;;;;;;;0.77;0.60;;;7.70;99.90;;;;;;5020186;28;20053;-85
2022/11/21 09:18:04;;;;;;;1.38;0.77;;;7.80;99.90;;;;;;4994391;28;20057;-85
2022/11/21 09:20:37;;;;;;;1.45;0.73;;;7.80;99.90;;;;;;5013364;28;20053;-85
2022/11/21 09:23:05;;;;;;;1.50;0.82;;;7.80;99.90;;;;;;5004132;28;20513;-84
2022/11/21 09:25:32;;;;;;;1.35;0.70;;;7.90;99.90;;;;;;5021767;28;20147;-85
2022/11/21 09:28:02;;;;;;;1.00;0.82;;;8.00;99.90;;;;;;5018391;28;20049;-85
2022/11/21 09:30:29;;;;;;;1.25;0.70;;;8.00;99.90;;;;;;5034298;28;20414;-85
2022/11/21 09:33:00;;;;;;;2.67;0.88;;;8.00;99.90;;;;;;5033799;28;20048;-85
2022/11/21 09:35:28;;;;;;;3.33;0.63;;;8.00;99.90;;;;;;5017358;28;20057;-85
2022/11/21 09:37:54;;;;;;;1.55;0.93;;;8.00;99.90;;;;;;5018758;28;20462;-85
2022/11/21 09:40:21;;;;;;;1.55;0.75;;;8.10;99.90;;;;;;5000599;28;20055;-86
2022/11/21 09:43:04;;;;;;;0.95;0.68;;;8.10;99.90;;;;;;5004742;28;20049;-85
2022/11/21 09:45:44;;;;;;;1.55;0.35;;;8.10;99.90;;;;;;5035443;28;20062;-85
2022/11/21 09:48:35;;;;;;;1.58;0.75;;;8.10;99.90;;;;;;5034694;28;20056;-84
2022/11/21 09:51:06;;;;;;;0.82;0.60;;;8.20;99.90;;;;;;5017581;28;20066;-86
2022/11/21 09:53:35;;;;;;;1.50;0.93;;;8.20;99.90;;;;;;5017107;28;20066;-85
2022/11/21 09:56:15;;;;;;;2.42;0.80;;;8.10;99.90;;;;;;5033532;28;20076;-85
2022/11/21 09:58:46;;;;;;;0.63;0.55;;;8.10;99.90;;;;;;5033106;28;20060;-85
2022/11/21 10:01:14;;;;;;;0.82;0.57;;;8.20;99.90;;;;;;5033725;28;20131;-86
2022/11/21 10:03:48;;;;;;;1.15;0.75;;;8.20;99.90;;;;;;5016535;28;20063;-85
2022/11/21 10:06:19;;;;;;;1.05;0.68;;;8.20;99.90;;;;;;5033407;28;20397;-85
2022/11/21 10:09:14;;;;;;;0.90;0.68;;;8.20;99.90;;;;;;5033083;28;20098;-85
2022/11/21 10:15:07;;;;;;;1.17;0.50;;;8.20;99.90;;;;;;5051600;28;20148;-85
2022/11/21 10:17:53;;;;;;;1.45;0.60;;;8.20;99.90;;;;;;5036882;28;20067;-86
2022/11/21 10:20:42;;;;;;;1.35;0.60;;;8.30;99.90;;;;;;5032276;28;20180;-86
2022/11/21 10:23:23;;;;;;;1.80;0.57;;;8.30;99.90;;;;;;5033085;28;20049;-85
2022/11/21 10:26:18;;;;;;;1.13;0.75;;;8.30;99.90;;;;;;5031661;28;20110;-85
2022/11/21 10:28:50;;;;;;;2.20;0.85;;;8.30;99.90;;;;;;5030494;28;20484;-86
2022/11/21 10:31:17;;;;;;;1.40;0.68;;;8.30;99.90;;;;;;5027435;28;20144;-86
2022/11/21 10:33:44;;;;;;;0.65;0.50;;;8.40;99.90;;;;;;5025307;28;20059;-84
2022/11/21 10:36:13;;;;;;;1.13;0.68;;;8.40;99.90;;;;;;5012642;28;20128;-85
2022/11/21 10:38:40;;;;;;;1.63;0.60;;;8.40;99.90;;;;;;5029958;28;20567;-85
2022/11/21 10:41:17;;;;;;;1.30;1.05;;;8.40;99.90;;;;;;5032949;28;20122;-86
2022/11/21 10:46:56;;;;;;;3.47;1.10;;;8.50;99.90;;;;;;5048984;28;20063;-86
2022/11/21 10:49:27;;;;;;;2.08;1.10;;;8.50;99.90;;;;;;5030034;28;20354;-86
2022/11/21 10:52:03;;;;;;;2.85;1.10;;;8.50;99.90;;;;;;5031139;28;20114;-86
2022/11/21 10:54:33;;;;;;;2.60;1.23;;;8.50;99.90;;;;;;5029925;28;20056;-86
2022/11/21 10:57:11;;;;;;;1.23;0.82;;;8.50;99.90;;;;;;5015152;28;20047;-86
2022/11/21 10:59:38;;;;;;;1.73;0.82;;;8.50;99.90;;;;;;5017889;28;20049;-86
2022/11/21 11:02:11;;;;;;;1.73;1.08;;;8.60;99.90;;;;;;5016244;28;20045;-85
2022/11/21 11:04:38;;;;;;;2.53;0.90;;;8.60;99.90;;;;;;5049325;28;20066;-85
2022/11/21 11:07:25;;;;;;;2.80;1.17;;;8.60;99.90;;;;;;5020481;28;20150;-86
2022/11/21 11:09:52;;;;;;;1.63;1.10;;;8.70;99.90;;;;;;5015646;28;20094;-86
2022/11/21 11:15:23;;;;;;;1.85;1.10;;;8.70;99.90;;;;;;5011954;28;20134;-85
2022/11/21 11:17:51;;;;;;;1.83;0.80;;;8.80;99.90;;;;;;4996328;28;20048;-86
2022/11/21 11:20:36;;;;;;;2.55;1.13;;;8.80;99.90;;;;;;5009718;28;20099;-85
2022/11/21 11:23:19;;;;;;;3.53;1.25;;;8.80;99.90;;;;;;5031359;28;20098;-86
2022/11/21 11:25:51;;;;;;;1.77;0.93;;;8.80;99.90;;;;;;5029668;28;20355;-86
2022/11/21 11:28:23;;;;;;;2.50;1.10;;;8.90;99.90;;;;;;5030089;28;20164;-86
2022/11/21 11:30:54;;;;;;;2.38;1.25;;;8.90;99.90;;;;;;5032543;28;20101;-85
2022/11/21 11:33:30;;;;;;;5.53;1.50;;;8.90;99.90;;;;;;5031526;28;20071;-85
2022/11/21 11:36:03;;;;;;;3.38;1.30;;;8.90;99.90;;;;;;5030919;28;20151;-84
2022/11/21 11:38:30;;;;;;;3.15;2.10;;;8.90;99.90;;;;;;5047980;28;20484;-83
2022/11/21 11:40:59;;;;;;;3.72;1.52;;;8.90;99.90;;;;;;5047627;28;20080;-84
2022/11/21 11:49:25;;;;;;;;;;;9.00;99.90;;;;;;5061913;28;20135;-84
2022/11/21 11:51:56;;;;;;;2.92;0.98;;;9.00;99.90;;;;;;5045315;28;19930;-85
2022/11/21 11:54:31;;;;;;;4.80;1.25;;;9.10;99.90;;;;;;5005188;28;20760;-86
2022/11/21 11:56:58;;;;;;;2.55;1.13;;;9.10;99.90;;;;;;5021084;28;20650;-85
2022/11/21 11:59:28;;;;;;;4.00;1.30;;;9.20;99.90;;;;;;5001599;28;20190;-84
2022/11/21 12:02:01;;;;;;;2.38;1.23;;;9.30;99.90;;;;;;5018703;28;20045;-84
2022/11/21 12:04:52;;;;;;;2.63;1.10;;;9.30;99.90;;;;;;5010090;28;20139;-85
2022/11/21 12:07:21;;;;;;;3.15;1.60;;;9.40;99.90;;;;;;5001929;28;20067;-86
2022/11/21 12:10:15;;;;;;;2.40;1.35;;;9.40;99.90;;;;;;5022974;28;20055;-85
2022/11/21 12:12:50;;;;;;;3.38;1.05;;;9.50;99.90;;;;;;5028230;28;20044;-86
2022/11/21 12:18:19;;;;;;;5.57;1.60;;;9.60;99.90;;;;;;5040146;28;20067;-85
2022/11/21 12:20:52;;;;;;;1.98;1.20;;;9.60;99.90;;;;;;5037999;28;20217;-86
2022/11/21 12:23:19;;;;;;;5.20;1.70;;;9.70;99.90;;;;;;5019875;28;20117;-85
2022/11/21 12:25:57;;;;;;;4.95;1.67;;;9.70;99.90;;;;;;5024706;28;20167;-85
2022/11/21 12:28:40;;;;;;;3.47;1.60;;;9.70;99.90;;;;;;5024117;28;20299;-85
2022/11/21 12:31:59;;;;;;;3.17;1.35;;;9.70;99.90;;;;;;5037839;28;20048;-85
2022/11/21 12:34:44;;;;;;;3.28;1.38;;;9.70;99.90;;;;;;4959119;28;20118;-86
2022/11/21 12:37:18;;;;;;;3.03;1.45;;;9.80;99.90;;;;;;5039858;28;20067;-86
2022/11/21 12:39:57;;;;;;;3.33;1.33;;;9.80;99.90;;;;;;5039751;28;20060;-84
2022/11/21 12:45:23;;;;;;;6.03;1.90;;;9.70;99.90;;;;;;5055350;28;20098;-85
2022/11/21 12:56:36;;;;;;;4.72;1.75;;;9.50;99.90;;;;;;5036487;28;20056;-85
2022/11/21 12:59:03;;;;;;;4.65;1.90;;;9.50;99.90;;;;;;5041962;28;20063;-85
2022/11/21 13:01:54;;;;;;;4.93;2.05;;;9.40;99.90;;;;;;5027821;28;20159;-85
2022/11/21 13:04:24;;;;;;;2.95;1.92;;;9.40;99.90;;;;;;5044494;28;20381;-85
2022/11/21 13:06:51;;;;;;;3.72;1.83;;;9.40;99.90;;;;;;5043157;28;20135;-85
2022/11/21 13:09:21;;;;;;;4.45;1.58;;;9.40;99.90;;;;;;5007407;28;20566;-85
2022/11/21 13:12:21;;;;;;;4.85;2.08;;;9.30;99.90;;;;;;5011362;28;20053;-85
2022/11/21 13:14:53;;;;;;;5.75;2.47;;;9.30;99.90;;;;;;4956391;28;20045;-85
2022/11/21 13:17:27;;;;;;;3.37;1.70;;;9.20;99.90;;;;;;5025295;28;20056;-86
2022/11/21 13:20:14;;;;;;;5.28;1.30;;;9.20;99.90;;;;;;5039674;28;20165;-85
2022/11/21 13:22:41;;;;;;;3.17;1.30;;;9.10;99.90;;;;;;5025456;28;20521;-85
2022/11/21 13:25:08;;;;;;;2.80;1.13;;;9.00;99.90;;;;;;5024251;28;20057;-85
2022/11/21 13:27:39;;;;;;;3.20;1.15;;;9.00;99.90;;;;;;5033086;28;20080;-86
2022/11/21 13:30:06;;;;;;;4.72;2.08;;;9.00;99.90;;;;;;5044994;28;20172;-86
2022/11/21 13:32:59;;;;;;;2.40;1.20;;;8.90;99.90;;;;;;5044316;28;21227;-85
2022/11/21 13:35:44;;;;;;;3.08;0.98;;;8.80;99.90;;;;;;5022519;28;20053;-87
2022/11/21 13:38:12;;;;;;;3.20;1.30;;;8.70;99.90;;;;;;5039981;28;20063;-85
2022/11/21 13:42:56;;;;;;;3.70;1.30;;;8.70;99.90;;;;;;5025084;28;20048;-86
2022/11/21 13:43:26;;;;;;;3.63;1.00;;;8.60;99.90;;;;;;5043859;28;20139;-86
2022/11/21 13:46:01;;;;;;;3.92;1.00;;;8.60;99.90;;;;;;5008460;28;20056;-86
2022/11/21 13:48:33;;;;;;;2.35;1.17;;;8.50;99.90;;;;;;4992333;28;20141;-85
2022/11/21 13:51:27;;;;;;;1.77;1.20;;;8.50;99.90;;;;;;5024149;28;20120;-85
2022/11/21 13:54:10;;;;;;;1.55;1.15;;;8.50;99.90;;;;;;5037228;28;20063;-86